To NAV CANADA Home Page Login to a new session Search on AWWS site Feedback and Comments Disclaimer Vers la page française équivalente Tips FAQ What's new on the site To the Forecasts and Observations / NOTAM section To "File a Flight Plan" website Publications and other links Update of the User's profile FIC Telephone Numbers My Weather Data Folder Route Weather Data Regional Weather Data Local Weather Data To the Forecasts and Observations / NOTAM section
Request Generated 02/11/2016 at 10:37:10 UTC . Weather information available at that time is displayed.

METAR/TAF

HALIFAX/STANFIELD INTL/NS    

METAR CYHZ 111000Z 36004KT 15SM -SHSN SCT063 M05/M05 A2952 RMK SC3
SLP005=
METAR CYHZ 110900Z 35005KT 10SM -SHSN OVC042 M05/M05 A2952 RMK SC8
SLP005=
SPECI CYHZ 110851Z 34005KT 6SM -SHSN OVC042 M05/M05 A2952 RMK SC8
SLP006=
METAR CYHZ 110800Z 35005KT 2 1/2SM -SHSN OVC019 M04/M05 A2952 RMK SC8
SLP006=

TAF AMD CYHZ 111010Z 1110/1206 35005KT P6SM -SN OVC040 TEMPO
1110/1115 5SM -SN OVC020
FM111500 16006KT P6SM -SN OVC020 TEMPO 1115/1123 2SM -SN OVC015
FM112300 27008KT P6SM BKN020
RMK NXT FCST BY 111200Z=
Your time UTC time
Weather data provided by Environment Canada and NAV CANADA